sensor_id;sensor_type;location;lat;lon;timestamp;P1;durP1;ratioP1;P2;durP2;ratioP2
58152;SDS011;43967;51.634;5.566;2022-12-18T00:03:45;17.90;;;9.30;;
58152;SDS011;43967;51.634;5.566;2022-12-18T00:08:47;19.15;;;9.75;;
58152;SDS011;43967;51.634;5.566;2022-12-18T00:13:49;17.10;;;8.93;;
58152;SDS011;43967;51.634;5.566;2022-12-18T00:18:51;17.25;;;9.43;;
58152;SDS011;43967;51.634;5.566;2022-12-18T00:23:55;19.83;;;10.25;;
58152;SDS011;43967;51.634;5.566;2022-12-18T00:29:00;18.03;;;9.73;;
58152;SDS011;43967;51.634;5.566;2022-12-18T00:34:02;20.40;;;9.77;;
58152;SDS011;43967;51.634;5.566;2022-12-18T00:39:04;18.88;;;9.52;;
58152;SDS011;43967;51.634;5.566;2022-12-18T00:44:06;17.70;;;9.53;;
58152;SDS011;43967;51.634;5.566;2022-12-18T00:49:08;19.20;;;9.83;;
58152;SDS011;43967;51.634;5.566;2022-12-18T00:54:12;20.52;;;10.75;;
58152;SDS011;43967;51.634;5.566;2022-12-18T00:59:13;18.52;;;9.88;;
58152;SDS011;43967;51.634;5.566;2022-12-18T01:04:15;19.43;;;9.67;;
58152;SDS011;43967;51.634;5.566;2022-12-18T01:09:16;19.15;;;10.43;;
58152;SDS011;43967;51.634;5.566;2022-12-18T01:14:17;18.48;;;9.82;;
58152;SDS011;43967;51.634;5.566;2022-12-18T01:19:18;19.67;;;10.50;;
58152;SDS011;43967;51.634;5.566;2022-12-18T01:24:20;20.25;;;10.13;;
58152;SDS011;43967;51.634;5.566;2022-12-18T01:29:21;21.60;;;9.73;;
58152;SDS011;43967;51.634;5.566;2022-12-18T01:34:25;19.97;;;10.60;;
58152;SDS011;43967;51.634;5.566;2022-12-18T01:39:26;19.77;;;10.10;;
58152;SDS011;43967;51.634;5.566;2022-12-18T01:50:07;19.90;;;10.60;;
58152;SDS011;43967;51.634;5.566;2022-12-18T01:55:16;19.97;;;10.10;;
58152;SDS011;43967;51.634;5.566;2022-12-18T02:00:19;18.80;;;9.80;;
58152;SDS011;43967;51.634;5.566;2022-12-18T02:21:49;19.08;;;9.70;;
58152;SDS011;43967;51.634;5.566;2022-12-18T02:27:11;18.37;;;9.67;;
58152;SDS011;43967;51.634;5.566;2022-12-18T02:32:14;18.83;;;9.30;;
58152;SDS011;43967;51.634;5.566;2022-12-18T02:37:20;19.42;;;10.48;;
58152;SDS011;43967;51.634;5.566;2022-12-18T02:42:23;18.25;;;10.20;;
58152;SDS011;43967;51.634;5.566;2022-12-18T02:47:27;19.87;;;9.57;;
58152;SDS011;43967;51.634;5.566;2022-12-18T02:52:33;16.42;;;9.23;;
58152;SDS011;43967;51.634;5.566;2022-12-18T02:57:43;18.58;;;8.80;;
58152;SDS011;43967;51.634;5.566;2022-12-18T03:08:16;17.52;;;9.23;;
58152;SDS011;43967;51.634;5.566;2022-12-18T03:13:31;17.08;;;9.00;;
58152;SDS011;43967;51.634;5.566;2022-12-18T03:18:44;15.80;;;8.63;;
58152;SDS011;43967;51.634;5.566;2022-12-18T03:23:49;15.03;;;7.67;;
58152;SDS011;43967;51.634;5.566;2022-12-18T03:28:53;15.05;;;8.32;;
58152;SDS011;43967;51.634;5.566;2022-12-18T03:33:59;15.23;;;8.20;;
58152;SDS011;43967;51.634;5.566;2022-12-18T03:39:04;15.33;;;8.20;;
58152;SDS011;43967;51.634;5.566;2022-12-18T03:49:20;16.25;;;8.88;;
58152;SDS011;43967;51.634;5.566;2022-12-18T03:54:38;16.27;;;8.83;;
58152;SDS011;43967;51.634;5.566;2022-12-18T03:59:43;16.60;;;8.77;;
58152;SDS011;43967;51.634;5.566;2022-12-18T04:04:46;16.48;;;8.85;;
58152;SDS011;43967;51.634;5.566;2022-12-18T04:09:48;15.93;;;8.87;;
58152;SDS011;43967;51.634;5.566;2022-12-18T04:14:50;15.90;;;9.60;;
58152;SDS011;43967;51.634;5.566;2022-12-18T04:19:52;16.63;;;9.43;;
58152;SDS011;43967;51.634;5.566;2022-12-18T04:24:53;16.45;;;9.18;;
58152;SDS011;43967;51.634;5.566;2022-12-18T04:29:54;16.07;;;8.83;;
58152;SDS011;43967;51.634;5.566;2022-12-18T04:34:56;16.02;;;9.20;;
58152;SDS011;43967;51.634;5.566;2022-12-18T04:39:57;15.27;;;9.00;;
58152;SDS011;43967;51.634;5.566;2022-12-18T04:44:58;16.30;;;9.67;;
58152;SDS011;43967;51.634;5.566;2022-12-18T04:49:59;15.43;;;8.52;;
58152;SDS011;43967;51.634;5.566;2022-12-18T04:55:00;14.30;;;8.38;;
58152;SDS011;43967;51.634;5.566;2022-12-18T05:00:02;15.33;;;8.87;;
58152;SDS011;43967;51.634;5.566;2022-12-18T05:05:04;14.67;;;8.13;;
58152;SDS011;43967;51.634;5.566;2022-12-18T05:10:05;14.32;;;8.32;;
58152;SDS011;43967;51.634;5.566;2022-12-18T05:15:07;13.93;;;7.97;;
58152;SDS011;43967;51.634;5.566;2022-12-18T05:20:08;13.93;;;8.20;;
58152;SDS011;43967;51.634;5.566;2022-12-18T05:25:10;13.60;;;7.85;;
58152;SDS011;43967;51.634;5.566;2022-12-18T05:30:11;13.20;;;7.88;;
58152;SDS011;43967;51.634;5.566;2022-12-18T05:35:13;13.93;;;8.10;;
58152;SDS011;43967;51.634;5.566;2022-12-18T05:40:14;13.48;;;7.82;;
58152;SDS011;43967;51.634;5.566;2022-12-18T05:45:15;13.70;;;7.50;;
58152;SDS011;43967;51.634;5.566;2022-12-18T05:50:16;13.13;;;7.57;;
58152;SDS011;43967;51.634;5.566;2022-12-18T05:55:17;12.80;;;7.90;;
58152;SDS011;43967;51.634;5.566;2022-12-18T06:00:18;13.10;;;7.13;;
58152;SDS011;43967;51.634;5.566;2022-12-18T06:05:19;11.95;;;6.82;;
58152;SDS011;43967;51.634;5.566;2022-12-18T06:10:21;12.63;;;6.70;;
58152;SDS011;43967;51.634;5.566;2022-12-18T06:15:22;12.77;;;7.22;;
58152;SDS011;43967;51.634;5.566;2022-12-18T06:20:23;12.23;;;7.00;;
58152;SDS011;43967;51.634;5.566;2022-12-18T06:25:24;13.80;;;7.13;;
58152;SDS011;43967;51.634;5.566;2022-12-18T06:30:25;13.32;;;7.07;;
58152;SDS011;43967;51.634;5.566;2022-12-18T06:35:26;13.82;;;7.05;;
58152;SDS011;43967;51.634;5.566;2022-12-18T06:40:27;11.80;;;7.57;;
58152;SDS011;43967;51.634;5.566;2022-12-18T06:45:28;12.47;;;7.47;;
58152;SDS011;43967;51.634;5.566;2022-12-18T06:50:29;13.50;;;7.47;;
58152;SDS011;43967;51.634;5.566;2022-12-18T06:55:30;12.70;;;7.38;;
58152;SDS011;43967;51.634;5.566;2022-12-18T07:00:32;13.83;;;7.53;;
58152;SDS011;43967;51.634;5.566;2022-12-18T07:05:33;13.43;;;7.80;;
58152;SDS011;43967;51.634;5.566;2022-12-18T07:10:40;12.55;;;7.53;;
58152;SDS011;43967;51.634;5.566;2022-12-18T07:15:42;12.87;;;7.37;;
58152;SDS011;43967;51.634;5.566;2022-12-18T07:20:44;13.30;;;7.97;;
58152;SDS011;43967;51.634;5.566;2022-12-18T07:25:45;12.48;;;7.25;;
58152;SDS011;43967;51.634;5.566;2022-12-18T07:30:46;12.27;;;7.30;;
58152;SDS011;43967;51.634;5.566;2022-12-18T07:35:47;12.83;;;7.60;;
58152;SDS011;43967;51.634;5.566;2022-12-18T07:40:48;12.95;;;7.60;;
58152;SDS011;43967;51.634;5.566;2022-12-18T07:45:49;12.32;;;7.50;;
58152;SDS011;43967;51.634;5.566;2022-12-18T07:50:50;12.87;;;7.03;;
58152;SDS011;43967;51.634;5.566;2022-12-18T07:56:02;11.02;;;6.70;;
58152;SDS011;43967;51.634;5.566;2022-12-18T08:01:06;13.48;;;6.95;;
58152;SDS011;43967;51.634;5.566;2022-12-18T08:06:09;10.90;;;6.80;;
58152;SDS011;43967;51.634;5.566;2022-12-18T08:11:10;12.80;;;7.00;;
58152;SDS011;43967;51.634;5.566;2022-12-18T08:16:11;13.70;;;6.93;;
58152;SDS011;43967;51.634;5.566;2022-12-18T08:21:14;13.53;;;7.50;;
58152;SDS011;43967;51.634;5.566;2022-12-18T08:26:16;14.43;;;6.93;;
58152;SDS011;43967;51.634;5.566;2022-12-18T08:31:18;14.60;;;6.70;;
58152;SDS011;43967;51.634;5.566;2022-12-18T08:36:20;12.30;;;6.38;;
58152;SDS011;43967;51.634;5.566;2022-12-18T08:41:22;14.73;;;5.93;;
58152;SDS011;43967;51.634;5.566;2022-12-18T08:46:24;12.07;;;6.55;;
58152;SDS011;43967;51.634;5.566;2022-12-18T08:51:26;13.07;;;6.55;;
58152;SDS011;43967;51.634;5.566;2022-12-18T08:56:27;14.60;;;7.60;;
58152;SDS011;43967;51.634;5.566;2022-12-18T09:01:29;15.18;;;6.82;;
58152;SDS011;43967;51.634;5.566;2022-12-18T09:06:30;11.57;;;6.07;;
58152;SDS011;43967;51.634;5.566;2022-12-18T09:11:31;12.67;;;5.93;;
58152;SDS011;43967;51.634;5.566;2022-12-18T09:16:33;11.70;;;5.90;;
58152;SDS011;43967;51.634;5.566;2022-12-18T09:21:34;10.95;;;5.80;;
58152;SDS011;43967;51.634;5.566;2022-12-18T09:26:38;11.95;;;5.43;;
58152;SDS011;43967;51.634;5.566;2022-12-18T09:31:39;16.27;;;5.20;;
58152;SDS011;43967;51.634;5.566;2022-12-18T09:36:40;11.07;;;5.10;;
58152;SDS011;43967;51.634;5.566;2022-12-18T09:41:51;10.70;;;4.85;;
58152;SDS011;43967;51.634;5.566;2022-12-18T09:47:00;12.03;;;4.87;;
58152;SDS011;43967;51.634;5.566;2022-12-18T09:52:26;10.55;;;4.30;;
58152;SDS011;43967;51.634;5.566;2022-12-18T09:57:32;11.77;;;4.80;;
58152;SDS011;43967;51.634;5.566;2022-12-18T10:02:37;10.80;;;4.53;;
58152;SDS011;43967;51.634;5.566;2022-12-18T10:13:29;11.18;;;4.68;;
58152;SDS011;43967;51.634;5.566;2022-12-18T10:18:43;10.68;;;4.15;;
58152;SDS011;43967;51.634;5.566;2022-12-18T10:29:15;12.20;;;4.82;;
58152;SDS011;43967;51.634;5.566;2022-12-18T10:34:17;9.02;;;4.10;;
58152;SDS011;43967;51.634;5.566;2022-12-18T10:39:19;10.60;;;4.20;;
58152;SDS011;43967;51.634;5.566;2022-12-18T10:44:22;10.20;;;4.53;;
58152;SDS011;43967;51.634;5.566;2022-12-18T10:49:31;10.20;;;4.35;;
58152;SDS011;43967;51.634;5.566;2022-12-18T10:54:34;13.43;;;4.03;;
58152;SDS011;43967;51.634;5.566;2022-12-18T10:59:49;14.33;;;4.20;;
58152;SDS011;43967;51.634;5.566;2022-12-18T11:04:52;10.05;;;4.10;;
58152;SDS011;43967;51.634;5.566;2022-12-18T11:09:59;11.27;;;4.53;;
58152;SDS011;43967;51.634;5.566;2022-12-18T11:15:03;10.37;;;4.40;;
58152;SDS011;43967;51.634;5.566;2022-12-18T11:20:06;9.70;;;4.40;;
58152;SDS011;43967;51.634;5.566;2022-12-18T11:25:20;11.77;;;6.03;;
58152;SDS011;43967;51.634;5.566;2022-12-18T11:30:35;10.80;;;5.10;;
58152;SDS011;43967;51.634;5.566;2022-12-18T11:35:42;9.52;;;4.47;;
58152;SDS011;43967;51.634;5.566;2022-12-18T11:40:58;11.23;;;4.75;;
58152;SDS011;43967;51.634;5.566;2022-12-18T11:46:36;9.67;;;5.00;;
58152;SDS011;43967;51.634;5.566;2022-12-18T11:51:55;9.53;;;4.60;;
58152;SDS011;43967;51.634;5.566;2022-12-18T11:57:27;9.85;;;5.20;;
58152;SDS011;43967;51.634;5.566;2022-12-18T12:02:41;14.02;;;4.97;;
58152;SDS011;43967;51.634;5.566;2022-12-18T12:07:50;12.77;;;4.83;;
58152;SDS011;43967;51.634;5.566;2022-12-18T12:18:37;11.13;;;4.68;;
58152;SDS011;43967;51.634;5.566;2022-12-18T12:29:39;10.73;;;5.20;;
58152;SDS011;43967;51.634;5.566;2022-12-18T12:40:11;15.67;;;5.13;;
58152;SDS011;43967;51.634;5.566;2022-12-18T12:50:54;11.43;;;5.07;;
58152;SDS011;43967;51.634;5.566;2022-12-18T12:55:56;11.68;;;5.10;;
58152;SDS011;43967;51.634;5.566;2022-12-18T13:01:01;10.47;;;5.33;;
58152;SDS011;43967;51.634;5.566;2022-12-18T13:11:39;12.00;;;5.60;;
58152;SDS011;43967;51.634;5.566;2022-12-18T13:16:43;12.40;;;5.50;;
58152;SDS011;43967;51.634;5.566;2022-12-18T13:21:44;10.95;;;5.30;;
58152;SDS011;43967;51.634;5.566;2022-12-18T13:26:54;11.68;;;5.63;;
58152;SDS011;43967;51.634;5.566;2022-12-18T13:31:58;10.93;;;5.03;;
58152;SDS011;43967;51.634;5.566;2022-12-18T13:42:40;9.50;;;5.00;;
58152;SDS011;43967;51.634;5.566;2022-12-18T13:47:41;10.60;;;4.82;;
58152;SDS011;43967;51.634;5.566;2022-12-18T13:53:03;11.25;;;5.05;;
58152;SDS011;43967;51.634;5.566;2022-12-18T13:58:05;10.67;;;4.93;;
58152;SDS011;43967;51.634;5.566;2022-12-18T14:03:26;10.68;;;5.35;;
58152;SDS011;43967;51.634;5.566;2022-12-18T14:08:32;10.48;;;4.47;;
58152;SDS011;43967;51.634;5.566;2022-12-18T14:13:41;10.43;;;4.70;;
58152;SDS011;43967;51.634;5.566;2022-12-18T14:18:55;10.93;;;4.57;;
58152;SDS011;43967;51.634;5.566;2022-12-18T14:24:05;11.90;;;4.85;;
58152;SDS011;43967;51.634;5.566;2022-12-18T14:34:29;11.33;;;4.80;;
58152;SDS011;43967;51.634;5.566;2022-12-18T14:39:33;13.25;;;5.15;;
58152;SDS011;43967;51.634;5.566;2022-12-18T14:44:34;16.70;;;6.05;;
58152;SDS011;43967;51.634;5.566;2022-12-18T15:18:00;16.08;;;7.22;;
58152;SDS011;43967;51.634;5.566;2022-12-18T15:23:18;18.90;;;6.60;;
58152;SDS011;43967;51.634;5.566;2022-12-18T15:28:25;16.40;;;7.20;;
58152;SDS011;43967;51.634;5.566;2022-12-18T15:38:53;16.75;;;6.63;;
58152;SDS011;43967;51.634;5.566;2022-12-18T15:43:55;15.53;;;6.87;;
58152;SDS011;43967;51.634;5.566;2022-12-18T15:48:56;15.82;;;6.47;;
58152;SDS011;43967;51.634;5.566;2022-12-18T15:53:58;21.13;;;6.55;;
58152;SDS011;43967;51.634;5.566;2022-12-18T15:59:01;18.03;;;6.93;;
58152;SDS011;43967;51.634;5.566;2022-12-18T16:04:05;16.30;;;6.07;;
58152;SDS011;43967;51.634;5.566;2022-12-18T16:09:06;16.58;;;6.45;;
58152;SDS011;43967;51.634;5.566;2022-12-18T16:19:21;16.20;;;7.13;;
58152;SDS011;43967;51.634;5.566;2022-12-18T16:24:24;12.60;;;5.57;;
58152;SDS011;43967;51.634;5.566;2022-12-18T16:29:29;21.27;;;6.63;;
58152;SDS011;43967;51.634;5.566;2022-12-18T16:34:31;17.63;;;6.37;;
58152;SDS011;43967;51.634;5.566;2022-12-18T16:39:34;23.02;;;6.93;;
58152;SDS011;43967;51.634;5.566;2022-12-18T16:44:35;17.92;;;7.40;;
58152;SDS011;43967;51.634;5.566;2022-12-18T16:49:36;18.07;;;7.10;;
58152;SDS011;43967;51.634;5.566;2022-12-18T16:54:38;16.40;;;7.53;;
58152;SDS011;43967;51.634;5.566;2022-12-18T16:59:39;42.53;;;16.25;;
58152;SDS011;43967;51.634;5.566;2022-12-18T17:04:40;41.27;;;15.30;;
58152;SDS011;43967;51.634;5.566;2022-12-18T17:09:41;39.83;;;15.47;;
58152;SDS011;43967;51.634;5.566;2022-12-18T17:14:43;38.97;;;13.68;;
58152;SDS011;43967;51.634;5.566;2022-12-18T17:19:44;36.17;;;13.93;;
58152;SDS011;43967;51.634;5.566;2022-12-18T17:24:45;33.27;;;13.27;;
58152;SDS011;43967;51.634;5.566;2022-12-18T17:29:46;35.20;;;12.45;;
58152;SDS011;43967;51.634;5.566;2022-12-18T17:34:48;33.15;;;12.15;;
58152;SDS011;43967;51.634;5.566;2022-12-18T17:39:49;27.00;;;11.40;;
58152;SDS011;43967;51.634;5.566;2022-12-18T17:44:50;25.83;;;11.75;;
58152;SDS011;43967;51.634;5.566;2022-12-18T17:49:51;27.70;;;10.75;;
58152;SDS011;43967;51.634;5.566;2022-12-18T17:54:52;22.43;;;10.30;;
58152;SDS011;43967;51.634;5.566;2022-12-18T17:59:53;22.93;;;10.13;;
58152;SDS011;43967;51.634;5.566;2022-12-18T18:04:54;24.60;;;10.18;;
58152;SDS011;43967;51.634;5.566;2022-12-18T18:09:55;23.45;;;9.70;;
58152;SDS011;43967;51.634;5.566;2022-12-18T18:14:57;18.93;;;8.83;;
58152;SDS011;43967;51.634;5.566;2022-12-18T18:19:58;21.38;;;9.05;;
58152;SDS011;43967;51.634;5.566;2022-12-18T18:24:59;20.67;;;8.48;;
58152;SDS011;43967;51.634;5.566;2022-12-18T18:30:00;20.73;;;8.87;;
58152;SDS011;43967;51.634;5.566;2022-12-18T18:35:01;18.80;;;8.25;;
58152;SDS011;43967;51.634;5.566;2022-12-18T18:40:02;18.00;;;7.95;;
58152;SDS011;43967;51.634;5.566;2022-12-18T18:45:03;18.80;;;7.93;;
58152;SDS011;43967;51.634;5.566;2022-12-18T18:50:05;14.13;;;6.90;;
58152;SDS011;43967;51.634;5.566;2022-12-18T18:55:06;16.45;;;7.75;;
58152;SDS011;43967;51.634;5.566;2022-12-18T19:00:08;17.42;;;7.88;;
58152;SDS011;43967;51.634;5.566;2022-12-18T19:05:10;16.30;;;6.83;;
58152;SDS011;43967;51.634;5.566;2022-12-18T19:10:11;16.67;;;7.60;;
58152;SDS011;43967;51.634;5.566;2022-12-18T19:15:12;16.10;;;6.88;;
58152;SDS011;43967;51.634;5.566;2022-12-18T19:20:13;16.00;;;7.63;;
58152;SDS011;43967;51.634;5.566;2022-12-18T19:25:15;15.55;;;6.40;;
58152;SDS011;43967;51.634;5.566;2022-12-18T19:30:16;16.27;;;6.97;;
58152;SDS011;43967;51.634;5.566;2022-12-18T19:35:17;15.70;;;6.83;;
58152;SDS011;43967;51.634;5.566;2022-12-18T19:40:18;14.50;;;6.90;;
58152;SDS011;43967;51.634;5.566;2022-12-18T19:45:21;12.95;;;6.75;;
58152;SDS011;43967;51.634;5.566;2022-12-18T19:50:23;14.50;;;7.30;;
58152;SDS011;43967;51.634;5.566;2022-12-18T19:55:24;13.90;;;6.23;;
58152;SDS011;43967;51.634;5.566;2022-12-18T20:00:25;15.48;;;7.38;;
58152;SDS011;43967;51.634;5.566;2022-12-18T20:05:26;13.80;;;6.50;;
58152;SDS011;43967;51.634;5.566;2022-12-18T20:10:28;13.33;;;6.70;;
58152;SDS011;43967;51.634;5.566;2022-12-18T20:15:29;13.73;;;6.70;;
58152;SDS011;43967;51.634;5.566;2022-12-18T20:20:30;12.57;;;6.28;;
58152;SDS011;43967;51.634;5.566;2022-12-18T20:25:31;13.43;;;6.20;;
58152;SDS011;43967;51.634;5.566;2022-12-18T20:30:32;17.43;;;5.93;;
58152;SDS011;43967;51.634;5.566;2022-12-18T20:35:33;14.27;;;5.90;;
58152;SDS011;43967;51.634;5.566;2022-12-18T20:40:34;14.73;;;5.93;;
58152;SDS011;43967;51.634;5.566;2022-12-18T20:45:35;14.67;;;5.90;;
58152;SDS011;43967;51.634;5.566;2022-12-18T20:50:36;12.25;;;5.18;;
58152;SDS011;43967;51.634;5.566;2022-12-18T20:55:41;14.68;;;5.55;;
58152;SDS011;43967;51.634;5.566;2022-12-18T21:00:42;11.47;;;5.80;;
58152;SDS011;43967;51.634;5.566;2022-12-18T21:05:43;13.43;;;5.13;;
58152;SDS011;43967;51.634;5.566;2022-12-18T21:10:44;13.18;;;5.70;;
58152;SDS011;43967;51.634;5.566;2022-12-18T21:15:45;13.23;;;5.20;;
58152;SDS011;43967;51.634;5.566;2022-12-18T21:20:46;11.53;;;5.23;;
58152;SDS011;43967;51.634;5.566;2022-12-18T21:25:47;12.43;;;5.50;;
58152;SDS011;43967;51.634;5.566;2022-12-18T21:30:48;11.82;;;5.72;;
58152;SDS011;43967;51.634;5.566;2022-12-18T21:35:49;12.10;;;5.03;;
58152;SDS011;43967;51.634;5.566;2022-12-18T21:40:51;11.65;;;5.10;;
58152;SDS011;43967;51.634;5.566;2022-12-18T21:45:55;12.70;;;5.20;;
58152;SDS011;43967;51.634;5.566;2022-12-18T21:50:56;14.57;;;5.90;;
58152;SDS011;43967;51.634;5.566;2022-12-18T21:55:57;10.15;;;4.75;;
58152;SDS011;43967;51.634;5.566;2022-12-18T22:00:59;10.68;;;5.05;;
58152;SDS011;43967;51.634;5.566;2022-12-18T22:06:00;11.03;;;5.40;;
58152;SDS011;43967;51.634;5.566;2022-12-18T22:11:01;11.67;;;5.23;;
58152;SDS011;43967;51.634;5.566;2022-12-18T22:16:02;9.70;;;5.03;;
58152;SDS011;43967;51.634;5.566;2022-12-18T22:21:03;12.18;;;5.18;;
58152;SDS011;43967;51.634;5.566;2022-12-18T22:26:05;11.57;;;5.13;;
58152;SDS011;43967;51.634;5.566;2022-12-18T22:31:06;10.77;;;5.40;;
58152;SDS011;43967;51.634;5.566;2022-12-18T22:36:08;13.80;;;5.03;;
58152;SDS011;43967;51.634;5.566;2022-12-18T22:41:09;11.03;;;4.97;;
58152;SDS011;43967;51.634;5.566;2022-12-18T22:46:12;11.23;;;4.55;;
58152;SDS011;43967;51.634;5.566;2022-12-18T22:51:16;13.23;;;5.10;;
58152;SDS011;43967;51.634;5.566;2022-12-18T22:56:18;9.77;;;4.80;;
58152;SDS011;43967;51.634;5.566;2022-12-18T23:01:20;10.30;;;5.10;;
58152;SDS011;43967;51.634;5.566;2022-12-18T23:06:23;10.05;;;5.03;;
58152;SDS011;43967;51.634;5.566;2022-12-18T23:11:25;11.52;;;5.15;;
58152;SDS011;43967;51.634;5.566;2022-12-18T23:16:26;11.80;;;5.00;;
58152;SDS011;43967;51.634;5.566;2022-12-18T23:21:28;11.20;;;5.30;;
58152;SDS011;43967;51.634;5.566;2022-12-18T23:26:29;10.35;;;5.10;;
58152;SDS011;43967;51.634;5.566;2022-12-18T23:31:31;10.80;;;4.70;;
58152;SDS011;43967;51.634;5.566;2022-12-18T23:36:34;9.30;;;4.30;;
58152;SDS011;43967;51.634;5.566;2022-12-18T23:41:35;10.23;;;4.78;;
58152;SDS011;43967;51.634;5.566;2022-12-18T23:46:36;10.77;;;4.50;;
58152;SDS011;43967;51.634;5.566;2022-12-18T23:51:37;10.07;;;5.07;;
58152;SDS011;43967;51.634;5.566;2022-12-18T23:56:38;11.23;;;5.38;;
